Time;durP1;ratioP1;P1;durP2;ratioP2;P2;SDS_P1;SDS_P2;PMS_P1;PMS_P2;Temp;Humidity;BMP_temperature;BMP_pressure;BME280_temperature;BME280_humidity;BME280_pressure;Samples;Min_cycle;Max_cycle;Signal;HPM_P1;HPM_P2
2023/10/18 00:01:35;;;;;;;29.30;20.10;;;;;;;0.79;79.82;100137.52;217376;1261;140337;-73
2023/10/18 00:06:40;;;;;;;30.00;18.90;;;;;;;0.69;79.68;100136.38;217464;1258;142277;-72
2023/10/18 00:11:46;;;;;;;36.20;20.20;;;;;;;0.59;80.21;100132.50;218099;1257;140460;-70
2023/10/18 00:16:50;;;;;;;35.70;19.30;;;;;;;0.57;80.31;100126.45;217299;1257;140544;-70
2023/10/18 00:21:54;;;;;;;33.80;20.10;;;;;;;0.55;80.16;100130.09;217432;1257;140308;-71
2023/10/18 00:26:59;;;;;;;29.30;19.00;;;;;;;0.51;80.21;100130.21;217545;1258;141742;-70
2023/10/18 00:32:06;;;;;;;31.80;19.30;;;;;;;0.42;80.14;100128.70;217594;1257;140228;-71
2023/10/18 00:37:10;;;;;;;40.90;19.80;;;;;;;0.31;80.09;100123.20;217622;1258;140230;-70
2023/10/18 00:42:28;;;;;;;43.50;22.10;;;;;;;0.24;80.20;100116.56;219015;1259;144414;-72
2023/10/18 00:47:33;;;;;;;37.50;19.50;;;;;;;0.25;80.78;100118.05;217434;1259;139890;-66
2023/10/18 00:52:39;;;;;;;34.30;20.20;;;;;;;0.24;80.46;100111.55;219240;1259;141123;-66
2023/10/18 00:57:44;;;;;;;36.80;20.70;;;;;;;0.17;80.37;100118.14;219498;1257;142304;-65
2023/10/18 01:02:57;;;;;;;44.00;22.70;;;;;;;0.13;80.50;100113.52;219898;1257;140293;-67
2023/10/18 01:08:09;;;;;;;34.20;21.50;;;;;;;0.14;80.67;100108.33;219809;1257;140797;-68
2023/10/18 01:13:15;;;;;;;28.50;18.70;;;;;;;0.15;80.55;100100.17;220132;1257;141507;-72
2023/10/18 01:18:20;;;;;;;37.20;22.80;;;;;;;0.13;80.57;100098.48;220137;1257;141079;-71
2023/10/18 01:23:27;;;;;;;34.40;21.70;;;;;;;0.07;80.37;100091.75;219573;1258;140464;-69
2023/10/18 01:28:31;;;;;;;35.00;22.80;;;;;;;0.03;80.32;100089.42;218857;1257;140294;-70
2023/10/18 01:33:43;;;;;;;43.40;25.10;;;;;;;0.03;80.45;100080.85;219479;1257;140320;-71
2023/10/18 01:38:52;;;;;;;35.40;21.80;;;;;;;0.01;80.44;100081.73;218115;1257;140120;-67
2023/10/18 01:44:07;;;;;;;31.10;19.70;;;;;;;0.01;80.56;100081.01;218210;1257;140326;-68
2023/10/18 01:49:21;;;;;;;39.40;20.00;;;;;;;-0.04;80.47;100075.11;217444;1261;141370;-66
2023/10/18 01:54:26;;;;;;;33.30;21.40;;;;;;;-0.12;80.91;100074.58;217368;1261;140492;-67
2023/10/18 01:59:30;;;;;;;33.40;21.10;;;;;;;-0.18;80.68;100074.92;217511;1258;140629;-68
2023/10/18 02:04:45;;;;;;;46.50;25.20;;;;;;;-0.21;81.12;100075.13;217729;1261;140155;-69
2023/10/18 02:10:00;;;;;;;39.80;24.30;;;;;;;-0.22;81.27;100072.89;218385;1258;140339;-71
2023/10/18 02:15:07;;;;;;;36.90;22.00;;;;;;;-0.23;81.15;100073.44;217519;1258;140202;-68
2023/10/18 02:20:27;;;;;;;39.50;22.40;;;;;;;-0.28;80.98;100067.42;216901;1257;941165;-65
2023/10/18 02:25:46;;;;;;;45.90;26.00;;;;;;;-0.33;80.89;100067.65;218099;1261;140482;-68
2023/10/18 02:31:21;;;;;;;42.10;23.80;;;;;;;-0.35;81.57;100065.00;217354;1257;140073;-67
2023/10/18 02:36:23;;;;;;;50.10;25.30;;;;;;;-0.39;81.55;100068.67;218224;1258;140530;-66
2023/10/18 02:41:27;;;;;;;37.60;20.10;;;;;;;-0.40;81.21;100069.05;217436;1257;140262;-65
2023/10/18 02:46:33;;;;;;;38.50;23.20;;;;;;;-0.46;81.05;100068.43;218037;1257;140665;-68
2023/10/18 02:51:38;;;;;;;40.20;24.50;;;;;;;-0.55;81.04;100066.41;219473;1257;141973;-67
2023/10/18 02:56:59;;;;;;;33.60;22.90;;;;;;;-0.62;80.99;100064.17;217660;1261;141325;-68
2023/10/18 03:02:09;;;;;;;38.40;24.80;;;;;;;-0.61;81.61;100068.25;218477;1257;140144;-66
2023/10/18 03:07:15;;;;;;;38.10;23.70;;;;;;;-0.57;81.81;100068.65;217695;1259;142458;-66
2023/10/18 03:12:21;;;;;;;42.60;21.40;;;;;;;-0.58;81.42;100069.69;219775;1257;140752;-67
2023/10/18 03:17:28;;;;;;;39.50;23.90;;;;;;;-0.64;81.41;100061.89;219644;1257;142869;-65
2023/10/18 03:22:33;;;;;;;37.20;22.60;;;;;;;-0.64;81.46;100065.94;220071;1258;140532;-67
2023/10/18 03:27:41;;;;;;;37.80;20.70;;;;;;;-0.64;81.47;100060.75;217751;1258;140427;-65
2023/10/18 03:32:54;;;;;;;29.20;19.90;;;;;;;-0.71;81.30;100053.14;218092;1259;141393;-65
2023/10/18 03:38:03;;;;;;;37.00;21.60;;;;;;;-0.77;81.22;100053.23;217763;1259;140551;-65
2023/10/18 03:43:09;;;;;;;32.50;19.20;;;;;;;-0.84;81.02;100043.27;218468;1261;140087;-67
2023/10/18 03:48:23;;;;;;;34.10;20.50;;;;;;;-0.90;81.42;100036.09;217886;1257;140109;-65
2023/10/18 03:53:28;;;;;;;36.90;23.00;;;;;;;-0.95;81.53;100024.10;218709;1259;140785;-67
2023/10/18 03:58:34;;;;;;;38.90;22.60;;;;;;;-1.00;81.37;100021.58;218024;1257;143580;-67
2023/10/18 04:03:40;;;;;;;39.70;23.80;;;;;;;-1.03;81.35;100015.38;217507;1261;142958;-65
2023/10/18 04:08:46;;;;;;;34.20;21.70;;;;;;;-1.05;81.73;100016.13;217650;1259;140554;-65
2023/10/18 04:13:51;;;;;;;40.20;23.10;;;;;;;-1.07;81.36;100011.29;217351;1262;140211;-66
2023/10/18 04:18:56;;;;;;;37.00;20.70;;;;;;;-1.10;81.52;100003.84;217527;1258;140310;-66
2023/10/18 04:24:03;;;;;;;38.00;22.40;;;;;;;-1.17;81.56;99999.70;217208;1259;140097;-67
2023/10/18 04:29:10;;;;;;;36.60;21.10;;;;;;;-1.23;81.52;100002.58;217686;1259;140279;-66
2023/10/18 04:34:20;;;;;;;39.80;21.20;;;;;;;-1.27;81.80;100002.46;217856;1259;140693;-67
2023/10/18 04:39:27;;;;;;;32.40;20.60;;;;;;;-1.29;81.92;100005.29;217756;1259;140458;-66
2023/10/18 04:44:34;;;;;;;38.00;23.10;;;;;;;-1.31;81.79;100004.81;217799;1262;141608;-68
2023/10/18 04:49:39;;;;;;;40.00;26.40;;;;;;;-1.32;82.05;100003.66;219389;1259;140432;-66
2023/10/18 04:54:54;;;;;;;31.70;21.40;;;;;;;-1.30;82.36;100007.50;218852;1258;140898;-67
2023/10/18 05:00:11;;;;;;;44.00;20.20;;;;;;;-1.30;81.85;100009.20;217763;1259;140754;-67
2023/10/18 05:05:17;;;;;;;43.50;25.00;;;;;;;-1.34;81.91;100006.62;218170;1259;140661;-67
2023/10/18 05:10:22;;;;;;;42.20;26.00;;;;;;;-1.35;82.02;100010.23;218301;1261;140200;-67
2023/10/18 05:15:29;;;;;;;46.50;28.00;;;;;;;-1.30;82.45;100007.34;219102;1259;140882;-65
2023/10/18 05:26:17;;;;;;;35.50;23.00;;;;;;;-1.30;81.86;100021.27;218835;1257;140588;-65
2023/10/18 05:37:15;;;;;;;49.20;25.10;;;;;;;-1.32;81.97;100020.42;217817;1262;140629;-65
2023/10/18 05:41:51;;;;;;;55.60;27.90;;;;;;;-1.29;82.53;100010.98;217598;1262;140331;-66
2023/10/18 05:46:57;;;;;;;58.90;32.10;;;;;;;-1.21;82.52;100006.90;217626;1259;143167;-68
2023/10/18 05:57:16;;;;;;;51.60;29.40;;;;;;;-0.99;82.72;100003.54;218253;1258;140362;-67
2023/10/18 06:02:23;;;;;;;55.00;27.60;;;;;;;-0.93;82.85;99997.82;217530;1259;140043;-66
2023/10/18 06:07:29;;;;;;;45.20;26.50;;;;;;;-0.85;82.88;100002.08;217682;1259;140712;-65
2023/10/18 06:12:38;;;;;;;44.80;28.30;;;;;;;-0.77;83.03;100004.70;217470;1262;140692;-66
2023/10/18 06:17:46;;;;;;;46.90;26.70;;;;;;;-0.66;83.21;100008.11;217181;1262;140754;-66
2023/10/18 06:23:07;;;;;;;44.40;27.70;;;;;;;-0.54;83.57;100013.38;217282;1259;140251;-66
2023/10/18 06:28:11;;;;;;;56.80;32.30;;;;;;;-0.40;83.60;100010.20;217648;1259;140181;-69
2023/10/18 06:33:18;;;;;;;52.40;30.10;;;;;;;-0.21;84.18;100011.56;217818;1262;141859;-68
2023/10/18 06:38:24;;;;;;;42.40;29.70;;;;;;;-0.02;84.33;100006.74;217571;1258;140454;-68
2023/10/18 06:43:29;;;;;;;45.60;28.40;;;;;;;0.18;84.65;100003.61;218122;1262;140271;-66
2023/10/18 06:48:34;;;;;;;48.50;28.00;;;;;;;0.82;85.31;99998.80;218429;1259;141039;-69
2023/10/18 06:53:39;;;;;;;43.70;26.00;;;;;;;2.12;85.48;99995.58;218977;1258;140992;-71
2023/10/18 06:58:43;;;;;;;40.70;25.10;;;;;;;3.62;85.01;99986.40;218941;1259;140195;-69
2023/10/18 07:03:48;;;;;;;43.70;26.50;;;;;;;5.00;83.29;99984.70;218120;1258;140229;-69
2023/10/18 07:08:59;;;;;;;29.40;20.30;;;;;;;6.24;82.51;99987.09;217804;1262;139857;-70
2023/10/18 07:14:04;;;;;;;27.70;20.20;;;;;;;7.06;81.29;99979.08;217633;1258;139756;-72
2023/10/18 07:24:36;;;;;;;28.60;19.00;;;;;;;8.40;80.15;99986.52;218670;1259;141563;-69
2023/10/18 07:29:46;;;;;;;29.20;17.40;;;;;;;8.76;79.52;99990.65;217896;1259;140996;-69
2023/10/18 07:34:56;;;;;;;26.30;17.90;;;;;;;8.96;78.99;99980.98;218163;1259;140233;-69
2023/10/18 07:40:07;;;;;;;19.70;14.60;;;;;;;9.04;78.05;99980.31;217374;1259;140370;-68
2023/10/18 07:45:14;;;;;;;24.50;16.30;;;;;;;8.89;77.46;99977.24;217976;1259;141427;-71
2023/10/18 07:56:03;;;;;;;37.90;18.60;;;;;;;8.68;76.98;99968.34;216923;1259;141424;-70
2023/10/18 08:01:09;;;;;;;32.50;20.80;;;;;;;8.45;76.16;99972.35;217339;1259;140969;-67
2023/10/18 08:06:26;;;;;;;23.40;16.10;;;;;;;8.22;76.47;99973.26;218195;1258;141287;-69
2023/10/18 08:11:34;;;;;;;22.80;15.50;;;;;;;8.25;76.80;99976.91;218375;1257;140737;-68
2023/10/18 08:27:25;;;;;;;21.80;14.80;;;;;;;8.71;77.03;99955.61;218362;1257;140057;-67
2023/10/18 08:32:32;;;;;;;21.10;15.00;;;;;;;8.89;77.21;99957.58;218567;1258;140950;-68
2023/10/18 08:37:38;;;;;;;15.10;9.90;;;;;;;9.18;77.32;99963.35;217755;1259;140876;-68
2023/10/18 08:42:51;;;;;;;18.30;14.40;;;;;;;9.40;76.76;99963.71;217693;1257;140188;-67
2023/10/18 08:47:58;;;;;;;15.10;12.00;;;;;;;9.55;76.14;99969.38;218253;1257;140656;-68
2023/10/18 08:53:03;;;;;;;21.50;13.10;;;;;;;9.76;76.49;99964.59;219910;1259;160316;-67
2023/10/18 08:58:08;;;;;;;12.60;8.90;;;;;;;10.06;75.98;99961.66;218611;1259;140540;-68
2023/10/18 09:03:20;;;;;;;14.60;10.90;;;;;;;10.32;75.53;99964.73;218934;1257;141006;-67
2023/10/18 09:08:26;;;;;;;17.40;10.90;;;;;;;10.44;74.87;99974.63;218220;1259;140736;-69
2023/10/18 09:13:37;;;;;;;19.50;12.00;;;;;;;10.64;74.63;99967.08;217471;1261;141038;-69
2023/10/18 09:18:41;;;;;;;16.20;11.30;;;;;;;10.81;74.36;99964.02;217991;1260;141360;-69
2023/10/18 09:23:47;;;;;;;13.20;10.20;;;;;;;11.00;74.23;99958.92;217559;1261;140240;-68
2023/10/18 09:28:56;;;;;;;9.70;8.70;;;;;;;11.16;73.49;99958.39;218354;1259;140459;-67
2023/10/18 09:34:10;;;;;;;13.60;11.20;;;;;;;11.39;73.15;99952.26;218004;1258;140038;-69
2023/10/18 09:39:16;;;;;;;11.70;8.10;;;;;;;11.62;72.58;99957.98;217481;1259;140908;-72
2023/10/18 09:44:23;;;;;;;9.90;7.30;;;;;;;11.77;72.09;99959.86;217638;1258;139859;-72
2023/10/18 09:49:29;;;;;;;12.60;8.70;;;;;;;11.96;71.58;99957.08;217666;1259;140027;-71
2023/10/18 09:54:37;;;;;;;8.30;7.50;;;;;;;12.16;71.12;99947.63;217707;1259;210932;-73
2023/10/18 09:59:47;;;;;;;6.80;5.50;;;;;;;12.24;70.39;99948.66;217861;1260;140109;-71
2023/10/18 10:04:54;;;;;;;7.70;5.80;;;;;;;12.41;69.61;99940.79;217563;1261;140294;-73
2023/10/18 10:10:07;;;;;;;7.60;6.20;;;;;;;12.57;68.73;99937.94;217421;1257;140322;-73
2023/10/18 10:15:17;;;;;;;5.80;5.20;;;;;;;12.72;67.74;99931.52;217486;1260;140109;-73
2023/10/18 10:20:22;;;;;;;5.90;5.10;;;;;;;12.86;67.42;99929.77;218462;1258;140018;-73
2023/10/18 10:25:31;;;;;;;12.20;5.80;;;;;;;12.89;66.31;99927.37;218483;1261;140579;-72
2023/10/18 10:30:58;;;;;;;7.90;5.00;;;;;;;13.00;65.94;99921.80;217250;1260;140366;-72
2023/10/18 10:36:05;;;;;;;;;;;;;;;13.18;65.15;99922.45;218419;1259;139087;-72
2023/10/18 10:41:23;;;;;;;7.00;4.50;;;;;;;13.21;64.58;99917.67;218690;1259;125709;-72
2023/10/18 10:46:35;;;;;;;5.40;4.70;;;;;;;13.30;63.96;99915.25;218761;1261;140736;-73
2023/10/18 10:51:49;;;;;;;6.60;5.40;;;;;;;13.38;63.42;99904.53;218613;1260;140648;-72
2023/10/18 10:56:55;;;;;;;23.00;5.60;;;;;;;13.53;62.79;99899.19;220008;1260;139863;-73
2023/10/18 11:02:06;;;;;;;5.50;4.50;;;;;;;13.50;62.51;99888.77;218905;1259;139856;-73
2023/10/18 11:07:13;;;;;;;6.70;5.00;;;;;;;13.41;61.75;99894.88;217943;1260;139274;-72
2023/10/18 11:12:20;;;;;;;7.50;5.20;;;;;;;13.60;61.74;99883.52;219077;1257;139296;-74
2023/10/18 11:17:25;;;;;;;5.30;4.90;;;;;;;13.73;61.51;99871.67;219475;1259;139981;-74
2023/10/18 11:22:31;;;;;;;5.30;4.80;;;;;;;13.81;60.96;99866.66;220301;1257;140347;-74
2023/10/18 11:27:37;;;;;;;6.50;5.80;;;;;;;13.92;60.64;99858.35;219455;1258;139481;-73
2023/10/18 11:32:50;;;;;;;10.80;5.90;;;;;;;14.06;60.01;99855.16;218432;1258;140527;-72
2023/10/18 11:37:56;;;;;;;6.00;5.40;;;;;;;14.16;59.49;99852.08;217528;1261;139339;-73
2023/10/18 11:43:10;;;;;;;5.50;4.90;;;;;;;14.13;59.12;99851.57;217646;1260;139351;-73
2023/10/18 11:48:15;;;;;;;5.10;4.00;;;;;;;14.07;58.67;99847.92;218126;1259;139649;-73
2023/10/18 11:53:24;;;;;;;4.80;4.40;;;;;;;14.09;58.51;99845.96;217777;1260;140392;-72
2023/10/18 11:58:32;;;;;;;4.80;4.30;;;;;;;14.11;58.06;99837.73;217459;1260;139416;-72
2023/10/18 12:03:38;;;;;;;7.00;5.30;;;;;;;14.09;57.95;99827.40;217802;1259;139377;-72
2023/10/18 12:09:07;;;;;;;5.40;4.80;;;;;;;14.07;57.38;99823.90;217379;1259;139254;-70
2023/10/18 12:14:14;;;;;;;6.40;5.50;;;;;;;14.08;57.26;99826.86;217853;1262;139396;-73
2023/10/18 12:19:20;;;;;;;6.50;5.50;;;;;;;13.97;56.86;99823.94;217383;1260;139144;-74
2023/10/18 12:24:33;;;;;;;6.40;5.40;;;;;;;13.89;56.45;99816.73;217301;1258;139267;-73
2023/10/18 12:29:43;;;;;;;6.80;6.10;;;;;;;13.74;56.60;99810.75;217252;1259;140078;-73
2023/10/18 12:34:56;;;;;;;7.70;5.00;;;;;;;13.74;56.42;99807.66;218291;1259;139873;-73
2023/10/18 12:45:42;;;;;;;7.90;6.60;;;;;;;13.56;56.13;99792.25;217931;1262;140804;-73
2023/10/18 12:50:50;;;;;;;7.60;5.90;;;;;;;13.52;55.63;99793.45;217212;1262;139239;-73
2023/10/18 12:55:57;;;;;;;7.00;6.00;;;;;;;13.43;55.72;99787.95;218590;1259;139255;-73
2023/10/18 13:01:08;;;;;;;9.40;5.70;;;;;;;13.40;55.75;99778.61;217870;1259;139651;-73
2023/10/18 13:06:16;;;;;;;7.90;5.10;;;;;;;13.41;55.84;99772.67;220075;1258;140897;-74
2023/10/18 13:16:46;;;;;;;8.20;5.80;;;;;;;13.40;55.49;99760.62;219787;1258;139404;-74
2023/10/18 13:21:51;;;;;;;7.20;5.40;;;;;;;13.39;55.54;99754.39;219404;1258;139895;-73
2023/10/18 13:26:59;;;;;;;6.80;6.10;;;;;;;13.41;55.37;99749.42;219016;1257;139518;-73
2023/10/18 13:32:10;;;;;;;10.30;6.10;;;;;;;13.34;55.05;99740.30;217483;1262;139342;-74
2023/10/18 13:37:19;;;;;;;7.30;5.60;;;;;;;13.17;55.18;99730.00;218021;1260;141818;-73
2023/10/18 13:42:24;;;;;;;7.60;4.60;;;;;;;13.03;55.06;99731.27;217960;1261;139880;-76
2023/10/18 13:47:33;;;;;;;8.80;5.70;;;;;;;12.90;55.03;99732.55;218013;1262;139186;-73
2023/10/18 13:52:42;;;;;;;8.60;7.00;;;;;;;12.89;55.28;99725.38;217485;1261;139038;-70
2023/10/18 13:57:49;;;;;;;10.10;7.00;;;;;;;12.83;55.16;99720.98;218304;1261;140873;-74
2023/10/18 14:02:57;;;;;;;6.60;6.00;;;;;;;12.84;55.71;99717.47;217318;1260;141260;-74
2023/10/18 14:08:07;;;;;;;12.40;6.60;;;;;;;12.72;55.20;99708.27;218155;1259;236423;-75
2023/10/18 14:13:14;;;;;;;9.20;7.30;;;;;;;12.60;55.56;99706.83;217642;1262;139520;-76
2023/10/18 14:18:25;;;;;;;9.20;7.20;;;;;;;12.49;55.40;99699.45;217211;1260;922675;-76
2023/10/18 14:23:34;;;;;;;23.00;15.20;;;;;;;12.42;55.71;99696.30;217470;1260;139708;-75
2023/10/18 14:28:40;;;;;;;48.00;29.00;;;;;;;12.32;56.17;99694.22;218116;1262;140233;-79
2023/10/18 14:33:49;;;;;;;22.50;16.80;;;;;;;12.20;56.52;99687.06;217645;1261;139714;-76
2023/10/18 14:39:08;;;;;;;11.60;8.60;;;;;;;12.08;56.84;99679.31;218553;1259;140355;-75
2023/10/18 14:44:15;;;;;;;;;;;;;;;11.99;57.33;99681.89;218023;1261;223273;-75
2023/10/18 14:49:21;;;;;;;8.10;5.50;;;;;;;11.83;57.66;99678.78;218337;1262;125648;-75
2023/10/18 14:54:27;;;;;;;7.70;5.70;;;;;;;11.68;57.64;99675.20;218162;1259;139331;-77
2023/10/18 14:59:37;;;;;;;6.90;4.60;;;;;;;11.47;58.39;99667.52;219593;1258;139998;-75
2023/10/18 15:04:55;;;;;;;7.10;6.00;;;;;;;11.20;59.11;99661.66;218735;1260;139890;-76
2023/10/18 15:10:06;;;;;;;6.30;5.10;;;;;;;10.94;59.62;99664.55;218592;1262;140161;-77
2023/10/18 15:15:21;;;;;;;5.20;4.20;;;;;;;10.66;59.89;99656.65;220101;1259;140294;-78
2023/10/18 15:20:26;;;;;;;4.90;3.90;;;;;;;10.27;60.17;99657.09;219910;1260;139991;-76
2023/10/18 15:25:31;;;;;;;6.00;4.20;;;;;;;9.90;60.63;99659.12;217857;1260;139176;-75
2023/10/18 15:30:36;;;;;;;5.40;4.30;;;;;;;9.61;61.51;99655.39;218408;1262;139056;-75
2023/10/18 15:35:41;;;;;;;6.50;4.30;;;;;;;9.36;61.82;99652.81;218234;1260;139948;-77
2023/10/18 15:40:47;;;;;;;5.80;4.20;;;;;;;8.99;61.72;99653.29;217434;1262;140088;-71
2023/10/18 15:45:51;;;;;;;4.00;3.30;;;;;;;8.53;62.05;99666.84;219342;1261;140710;-75
2023/10/18 15:50:55;;;;;;;3.90;3.60;;;;;;;8.08;62.55;99662.14;217898;1262;139749;-75
2023/10/18 15:55:59;;;;;;;5.10;4.60;;;;;;;7.67;63.14;99659.95;217219;1261;139393;-76
2023/10/18 16:01:05;;;;;;;5.00;4.50;;;;;;;7.29;63.67;99658.18;218146;1262;140143;-74
2023/10/18 16:06:14;;;;;;;8.20;6.10;;;;;;;6.91;64.01;99661.61;217795;1258;140863;-74
2023/10/18 16:11:24;;;;;;;17.60;10.80;;;;;;;6.61;64.77;99663.88;217928;1261;139786;-73
2023/10/18 16:16:28;;;;;;;15.10;10.30;;;;;;;6.36;64.83;99663.31;218224;1257;140506;-73
2023/10/18 16:21:33;;;;;;;16.40;9.00;;;;;;;6.12;65.64;99659.84;218063;1258;140299;-71
2023/10/18 16:26:39;;;;;;;13.70;7.10;;;;;;;6.00;66.05;99654.84;218735;1257;141725;-74
2023/10/18 16:31:46;;;;;;;13.00;7.60;;;;;;;5.89;66.60;99661.99;218058;1257;139907;-73
2023/10/18 16:36:50;;;;;;;10.40;6.30;;;;;;;5.81;66.82;99664.56;217808;1261;152848;-73
2023/10/18 16:41:55;;;;;;;24.10;10.20;;;;;;;5.66;66.91;99662.17;218844;1257;139688;-73
2023/10/18 16:46:59;;;;;;;33.00;16.90;;;;;;;5.44;66.88;99658.45;218625;1258;140289;-71
2023/10/18 16:52:04;;;;;;;36.00;18.60;;;;;;;5.26;67.02;99654.56;218997;1257;140811;-74
2023/10/18 16:57:08;;;;;;;35.30;16.70;;;;;;;4.95;67.11;99660.79;219565;1259;142343;-74
2023/10/18 17:02:11;;;;;;;39.40;17.10;;;;;;;4.77;67.67;99658.05;220128;1257;140798;-74
2023/10/18 17:07:15;;;;;;;34.50;15.60;;;;;;;4.58;67.75;99660.95;220068;1257;163056;-74
2023/10/18 17:12:18;;;;;;;28.30;17.50;;;;;;;4.46;68.51;99664.48;218747;1258;140578;-73
2023/10/18 17:17:22;;;;;;;21.10;11.70;;;;;;;4.40;68.53;99656.86;220010;1257;141721;-72
2023/10/18 17:22:27;;;;;;;32.10;18.80;;;;;;;4.17;68.62;99650.63;219170;1258;140838;-72
2023/10/18 17:27:34;;;;;;;46.80;23.50;;;;;;;4.05;69.05;99639.15;219014;1261;140041;-72
2023/10/18 17:32:42;;;;;;;41.70;22.80;;;;;;;4.03;69.56;99637.44;218505;1257;140905;-72
2023/10/18 17:37:46;;;;;;;;;;;;;;;3.88;69.52;99634.80;218391;1258;143430;-75
2023/10/18 17:42:51;;;;;;;60.30;36.30;;;;;;;3.74;69.98;99630.81;218978;1258;126178;-72
2023/10/18 17:47:56;;;;;;;62.00;36.00;;;;;;;3.61;69.87;99628.23;218552;1257;140599;-72
2023/10/18 17:53:00;;;;;;;56.80;33.50;;;;;;;3.52;70.45;99625.15;217826;1259;140105;-67
2023/10/18 17:58:09;;;;;;;57.60;33.80;;;;;;;3.45;70.31;99620.36;217871;1260;141900;-71
2023/10/18 18:03:14;;;;;;;108.30;47.70;;;;;;;3.25;70.46;99615.70;218681;1261;141956;-72
2023/10/18 18:08:23;;;;;;;142.60;51.80;;;;;;;3.10;70.85;99612.45;218306;1258;140656;-72
2023/10/18 18:13:32;;;;;;;94.90;40.40;;;;;;;2.99;71.04;99606.73;217996;1257;140336;-72
2023/10/18 18:18:43;;;;;;;81.20;37.00;;;;;;;2.89;71.37;99609.50;218497;1257;141305;-71
2023/10/18 18:23:49;;;;;;;87.60;46.20;;;;;;;2.74;71.63;99610.91;218069;1257;140071;-72
2023/10/18 18:29:01;;;;;;;100.10;44.50;;;;;;;2.68;72.00;99607.16;217682;1262;141137;-71
2023/10/18 18:34:05;;;;;;;86.80;43.30;;;;;;;2.65;72.06;99610.85;219483;1258;140832;-71
2023/10/18 18:39:11;;;;;;;96.40;46.40;;;;;;;2.52;71.92;99611.71;218561;1257;140875;-71
2023/10/18 18:44:15;;;;;;;102.90;49.70;;;;;;;2.43;72.24;99612.48;217739;1257;139941;-71
2023/10/18 18:49:19;;;;;;;86.70;46.70;;;;;;;2.38;72.32;99606.79;219396;1258;140439;-71
2023/10/18 18:54:23;;;;;;;75.90;39.10;;;;;;;2.26;72.34;99598.33;220007;1257;140366;-71
2023/10/18 18:59:27;;;;;;;70.60;36.10;;;;;;;2.13;72.60;99599.44;219708;1259;140441;-72
2023/10/18 19:04:32;;;;;;;60.30;30.60;;;;;;;2.13;72.97;99595.20;220288;1257;140568;-71
2023/10/18 19:09:39;;;;;;;65.20;31.60;;;;;;;2.06;73.10;99590.77;220165;1257;141477;-71
2023/10/18 19:14:43;;;;;;;98.70;45.30;;;;;;;2.02;73.28;99588.14;220098;1260;140052;-71
2023/10/18 19:19:49;;;;;;;82.20;41.50;;;;;;;1.99;72.94;99583.55;219695;1257;141637;-70
2023/10/18 19:24:53;;;;;;;94.50;45.00;;;;;;;1.87;72.82;99572.05;219343;1257;140254;-71
2023/10/18 19:29:58;;;;;;;87.70;47.60;;;;;;;1.80;73.19;99570.12;220029;1257;140512;-71
2023/10/18 19:35:02;;;;;;;85.70;41.90;;;;;;;1.76;73.15;99572.73;217993;1260;140908;-70
2023/10/18 19:40:11;;;;;;;70.60;43.40;;;;;;;1.67;73.12;99570.65;218896;1257;141022;-70
2023/10/18 19:45:17;;;;;;;80.60;45.90;;;;;;;1.58;73.68;99565.15;218074;1257;140217;-70
2023/10/18 19:50:23;;;;;;;99.80;49.40;;;;;;;1.54;73.71;99567.94;217712;1257;140410;-70
2023/10/18 19:55:28;;;;;;;92.20;49.40;;;;;;;1.45;73.63;99564.66;217959;1258;141026;-69
2023/10/18 20:00:34;;;;;;;97.40;50.90;;;;;;;1.37;73.69;99559.32;217942;1261;140298;-69
2023/10/18 20:05:42;;;;;;;93.80;50.00;;;;;;;1.25;74.26;99553.45;218640;1257;139938;-70
2023/10/18 20:10:50;;;;;;;97.90;54.40;;;;;;;1.20;74.49;99545.38;217566;1260;141056;-68
2023/10/18 20:15:54;;;;;;;110.50;59.20;;;;;;;1.12;74.72;99546.17;218642;1259;140440;-69
2023/10/18 20:21:00;;;;;;;99.20;53.40;;;;;;;1.06;74.81;99542.09;217523;1257;140048;-73
2023/10/18 20:26:07;;;;;;;127.10;69.20;;;;;;;0.96;74.61;99536.95;218588;1258;142220;-71
2023/10/18 20:31:12;;;;;;;135.10;72.50;;;;;;;0.88;75.29;99531.40;218751;1258;141333;-70
2023/10/18 20:36:18;;;;;;;123.90;71.10;;;;;;;0.88;75.12;99519.50;219433;1257;141091;-71
2023/10/18 20:41:23;;;;;;;110.50;64.10;;;;;;;0.83;75.18;99527.08;218709;1257;140975;-72
2023/10/18 20:46:31;;;;;;;110.60;65.80;;;;;;;0.74;75.38;99519.73;219060;1257;140119;-71
2023/10/18 20:51:35;;;;;;;116.50;70.40;;;;;;;0.71;75.27;99515.44;218854;1257;141623;-70
2023/10/18 20:56:39;;;;;;;109.00;60.60;;;;;;;0.71;75.61;99515.03;219639;1257;140616;-73
2023/10/18 21:01:44;;;;;;;121.50;70.00;;;;;;;0.62;75.44;99510.33;218758;1258;140231;-73
2023/10/18 21:06:52;;;;;;;125.20;64.50;;;;;;;0.59;75.72;99506.91;220081;1257;140097;-72
2023/10/18 21:11:57;;;;;;;100.20;64.00;;;;;;;0.51;75.53;99506.96;218771;1257;140522;-70
2023/10/18 21:17:03;;;;;;;102.10;60.80;;;;;;;0.45;75.92;99506.16;219252;1257;142385;-68
2023/10/18 21:22:08;;;;;;;107.60;59.50;;;;;;;0.41;75.96;99502.88;219053;1257;141432;-68
2023/10/18 21:27:12;;;;;;;103.50;60.00;;;;;;;0.38;75.97;99504.46;219011;1257;139885;-71
2023/10/18 21:32:17;;;;;;;106.10;57.50;;;;;;;0.30;76.19;99506.75;219418;1257;139849;-68
2023/10/18 21:37:23;;;;;;;107.60;58.30;;;;;;;0.26;76.29;99501.45;218314;1259;139977;-69
2023/10/18 21:42:28;;;;;;;105.90;58.70;;;;;;;0.27;76.44;99498.40;218900;1260;140544;-70
2023/10/18 21:47:35;;;;;;;104.80;59.10;;;;;;;0.27;76.63;99490.50;218259;1259;142297;-69
2023/10/18 21:52:41;;;;;;;113.50;62.90;;;;;;;0.30;76.79;99491.06;219439;1259;141559;-70
2023/10/18 21:57:45;;;;;;;105.60;60.20;;;;;;;0.24;76.53;99480.86;218193;1257;142223;-71
2023/10/18 22:02:50;;;;;;;111.10;61.10;;;;;;;0.15;76.68;99474.91;218597;1258;141116;-69
2023/10/18 22:07:56;;;;;;;119.70;63.30;;;;;;;0.07;76.50;99472.49;217462;1257;141185;-67
2023/10/18 22:13:01;;;;;;;114.50;66.10;;;;;;;0.01;76.52;99468.22;217813;1257;140318;-67
2023/10/18 22:18:07;;;;;;;122.60;63.00;;;;;;;-0.06;76.87;99466.51;218571;1257;141095;-69
2023/10/18 22:23:14;;;;;;;114.80;62.40;;;;;;;-0.11;77.09;99464.50;218163;1258;140359;-68
2023/10/18 22:28:20;;;;;;;136.20;74.70;;;;;;;-0.14;77.42;99462.32;217747;1257;140625;-68
2023/10/18 22:33:27;;;;;;;131.70;69.70;;;;;;;-0.18;77.42;99449.77;218002;1257;140408;-69
2023/10/18 22:38:32;;;;;;;;;;;;;;;-0.22;77.37;99449.30;217353;1258;140913;-70
2023/10/18 22:43:36;;;;;;;109.00;66.10;;;;;;;-0.24;77.76;99435.26;219179;1258;126433;-70
2023/10/18 22:48:50;;;;;;;111.50;67.20;;;;;;;-0.17;78.40;99428.51;217097;1257;140293;-71
2023/10/18 22:54:03;;;;;;;122.70;64.70;;;;;;;-0.13;77.98;99426.79;219319;1258;140798;-69
2023/10/18 22:59:10;;;;;;;123.20;67.20;;;;;;;-0.15;78.09;99418.27;220139;1257;140539;-70
2023/10/18 23:04:17;;;;;;;110.50;63.00;;;;;;;-0.14;78.00;99411.40;220216;1257;141064;-67
2023/10/18 23:09:24;;;;;;;107.10;58.90;;;;;;;-0.13;78.10;99406.47;220133;1257;140493;-71
2023/10/18 23:14:30;;;;;;;89.00;54.00;;;;;;;-0.09;78.29;99400.98;220018;1258;142872;-68
2023/10/18 23:19:36;;;;;;;92.60;52.20;;;;;;;-0.03;78.09;99387.19;218614;1257;140093;-69
2023/10/18 23:24:41;;;;;;;78.30;45.40;;;;;;;-0.04;77.92;99381.40;219089;1257;140420;-68
2023/10/18 23:29:46;;;;;;;88.10;47.10;;;;;;;-0.14;77.72;99377.96;217879;1258;140950;-66
2023/10/18 23:34:51;;;;;;;84.70;46.10;;;;;;;-0.23;77.68;99371.40;218376;1257;140638;-69
2023/10/18 23:39:55;;;;;;;92.50;47.70;;;;;;;-0.25;78.26;99361.46;218880;1257;141022;-70
2023/10/18 23:55:39;;;;;;;80.40;47.50;;;;;;;-0.30;78.64;99351.26;218427;1258;140826;-68
